createdAt,value
2022-08-14T00:02:27.161Z,100647.09
2022-08-14T00:04:55.537Z,100641.81
2022-08-14T00:07:23.364Z,100647.16
2022-08-14T00:10:01.843Z,100652.72
2022-08-14T00:12:41.747Z,100656.69
2022-08-14T00:15:20.052Z,100652.06
2022-08-14T00:17:53.430Z,100653.22
2022-08-14T00:20:29.283Z,100644.56
2022-08-14T00:23:08.239Z,100654.59
2022-08-14T00:25:42.157Z,100661.91
2022-08-14T00:28:15.499Z,100648.13
2022-08-14T00:30:47.356Z,100646.63
2022-08-14T00:33:16.433Z,100644.25
2022-08-14T00:36:35.189Z,100643.56
2022-08-14T00:38:34.945Z,100640.84
2022-08-14T00:41:11.063Z,100641.53
2022-08-14T00:43:43.075Z,100644.75
2022-08-14T00:46:23.407Z,100634.22
2022-08-14T00:48:59.512Z,100639.78
2022-08-14T00:51:34.503Z,100636.72
2022-08-14T00:54:17.089Z,100634.81
2022-08-14T00:56:55.172Z,100626.31
2022-08-14T00:59:26.134Z,100617.66
2022-08-14T01:01:59.945Z,100618.84
2022-08-14T01:04:52.477Z,100614.78
2022-08-14T01:07:20.669Z,100608.22
2022-08-14T01:09:54.251Z,100609.00
2022-08-14T01:12:26.502Z,100602.06
2022-08-14T01:15:01.961Z,100601.69
2022-08-14T01:17:52.070Z,100597.47
2022-08-14T01:20:41.979Z,100597.56
2022-08-14T01:23:15.764Z,100592.03
2022-08-14T01:25:44.509Z,100586.03
2022-08-14T01:28:46.536Z,100577.38
2022-08-14T01:31:02.469Z,100580.44
2022-08-14T01:33:30.448Z,100580.16
2022-08-14T01:36:22.760Z,100577.88
2022-08-14T01:38:51.888Z,100572.63
2022-08-14T01:41:23.058Z,100571.94
2022-08-14T01:44:03.688Z,100567.69
2022-08-14T01:46:36.633Z,100561.06
2022-08-14T01:49:08.338Z,100557.97
2022-08-14T01:51:37.908Z,100544.59
2022-08-14T01:54:14.327Z,100546.47
2022-08-14T01:56:42.929Z,100545.34
2022-08-14T01:59:19.495Z,100539.06
2022-08-14T02:01:58.288Z,100543.31
2022-08-14T02:04:55.612Z,100534.16
2022-08-14T02:07:34.614Z,100525.28
2022-08-14T02:10:13.131Z,100517.75
2022-08-14T02:12:48.888Z,100508.09
2022-08-14T02:15:22.246Z,100509.63
2022-08-14T02:17:50.655Z,100502.72
2022-08-14T02:20:23.859Z,100504.06
2022-08-14T02:22:54.520Z,100503.56
2022-08-14T02:25:23.246Z,100509.09
2022-08-14T02:28:22.026Z,100510.78
2022-08-14T02:30:44.719Z,100505.63
2022-08-14T02:33:13.141Z,100503.75
2022-08-14T02:35:43.520Z,100500.31
2022-08-14T02:38:30.377Z,100500.09
2022-08-14T02:40:59.107Z,100489.94
2022-08-14T02:43:37.410Z,100484.53
2022-08-14T02:46:20.386Z,100481.56
2022-08-14T02:49:01.562Z,100486.09
2022-08-14T02:51:36.611Z,100490.50
2022-08-14T02:54:07.416Z,100484.75
2022-08-14T02:57:15.670Z,100495.50
2022-08-14T02:59:33.816Z,100485.38
2022-08-14T03:02:03.515Z,100479.25
2022-08-14T03:04:32.537Z,100463.59
2022-08-14T03:07:07.487Z,100463.22
2022-08-14T03:10:27.073Z,100462.47
2022-08-14T03:12:27.219Z,100466.22
2022-08-14T03:15:03.298Z,100462.16
2022-08-14T03:17:56.453Z,100457.16
2022-08-14T03:20:22.300Z,100460.84
2022-08-14T03:22:51.727Z,100460.34
2022-08-14T03:25:22.157Z,100457.38
2022-08-14T03:27:58.985Z,100457.91
2022-08-14T03:30:37.054Z,100467.22
2022-08-14T03:33:10.553Z,100466.84
2022-08-14T03:36:05.629Z,100465.16
2022-08-14T03:39:11.889Z,100464.75
2022-08-14T03:41:24.441Z,100472.25
2022-08-14T03:44:01.361Z,100465.56
2022-08-14T03:46:54.938Z,100459.78
2022-08-14T03:49:28.814Z,100459.13
2022-08-14T03:52:07.623Z,100463.91
2022-08-14T03:54:46.728Z,100460.88
2022-08-14T03:57:23.749Z,100463.09
2022-08-14T03:59:51.550Z,100461.44
2022-08-14T04:02:32.563Z,100449.94
2022-08-14T04:05:11.922Z,100454.53
2022-08-14T04:07:49.625Z,100461.81
2022-08-14T04:10:31.918Z,100454.75
2022-08-14T04:13:06.091Z,100458.50
2022-08-14T04:15:56.761Z,100451.63
2022-08-14T04:18:21.945Z,100449.41
2022-08-14T04:20:54.416Z,100450.44
2022-08-14T04:23:29.849Z,100442.13
2022-08-14T04:26:02.733Z,100436.94
2022-08-14T04:29:07.882Z,100438.75
2022-08-14T04:31:34.666Z,100429.22
2022-08-14T04:34:11.912Z,100432.19
2022-08-14T04:37:07.195Z,100431.91
2022-08-14T04:39:57.411Z,100426.19
2022-08-14T04:42:47.553Z,100422.59
2022-08-14T04:45:29.713Z,100430.75
2022-08-14T04:48:13.274Z,100433.75
2022-08-14T04:50:44.741Z,100437.09
2022-08-14T04:53:23.193Z,100421.50
2022-08-14T04:55:54.321Z,100423.06
2022-08-14T04:58:32.998Z,100421.31
2022-08-14T05:01:06.263Z,100421.03
2022-08-14T05:03:41.349Z,100424.13
2022-08-14T05:06:38.575Z,100431.88
2022-08-14T05:09:00.158Z,100434.41
2022-08-14T05:11:28.337Z,100431.78
2022-08-14T05:14:33.127Z,100430.25
2022-08-14T05:16:46.826Z,100431.94
2022-08-14T05:19:18.319Z,100434.59
2022-08-14T05:22:15.805Z,100435.09
2022-08-14T05:24:51.151Z,100448.03
2022-08-14T05:27:22.790Z,100448.22
2022-08-14T05:29:53.788Z,100444.81
2022-08-14T05:32:27.187Z,100440.28
2022-08-14T05:34:59.688Z,100447.91
2022-08-14T05:37:29.665Z,100455.03
2022-08-14T05:40:00.466Z,100452.00
2022-08-14T05:42:32.231Z,100464.53
2022-08-14T05:45:04.158Z,100465.56
2022-08-14T05:47:33.927Z,100461.16
2022-08-14T05:50:18.478Z,100458.78
2022-08-14T05:52:48.906Z,100457.06
2022-08-14T05:55:21.765Z,100449.56
2022-08-14T05:58:09.072Z,100450.63
2022-08-14T06:00:41.360Z,100441.44
2022-08-14T06:03:11.753Z,100448.88
2022-08-14T06:05:41.037Z,100438.50
2022-08-14T06:08:31.198Z,100429.84
2022-08-14T06:11:07.282Z,100429.31
2022-08-14T06:13:41.146Z,100430.06
2022-08-14T06:16:17.546Z,100437.19
2022-08-14T06:18:52.518Z,100437.25
2022-08-14T06:21:22.904Z,100433.41
2022-08-14T06:23:51.471Z,100436.63
2022-08-14T06:26:20.904Z,100438.53
2022-08-14T06:28:51.810Z,100439.50
2022-08-14T06:31:21.277Z,100440.84
2022-08-14T06:35:02.858Z,100438.63
2022-08-14T06:36:39.346Z,100435.72
2022-08-14T06:39:10.108Z,100436.22
2022-08-14T06:41:59.425Z,100426.38
2022-08-14T06:44:30.848Z,100430.72
2022-08-14T06:47:03.274Z,100431.53
2022-08-14T06:49:40.292Z,100418.38
2022-08-14T06:52:16.689Z,100422.72
2022-08-14T06:54:45.852Z,100413.00
2022-08-14T06:57:13.921Z,100414.09
2022-08-14T06:59:42.306Z,100417.66
2022-08-14T07:02:29.547Z,100415.19
2022-08-14T07:05:22.701Z,100416.41
2022-08-14T07:07:51.622Z,100424.34
2022-08-14T07:10:24.764Z,100419.81
2022-08-14T07:13:00.912Z,100419.25
2022-08-14T07:15:30.194Z,100425.97
2022-08-14T07:18:00.570Z,100425.09
2022-08-14T07:20:30.975Z,100423.72
2022-08-14T07:23:07.725Z,100431.00
2022-08-14T07:25:42.284Z,100432.38
2022-08-14T07:28:20.521Z,100434.25
2022-08-14T07:30:50.826Z,100436.16
2022-08-14T07:33:24.290Z,100437.81
2022-08-14T07:35:58.732Z,100439.97
2022-08-14T07:38:36.256Z,100442.03
2022-08-14T07:41:11.817Z,100439.75
2022-08-14T07:43:55.250Z,100441.91
2022-08-14T07:46:29.191Z,100433.78
2022-08-14T07:48:59.398Z,100443.13
2022-08-14T07:51:34.462Z,100428.91
2022-08-14T07:54:09.822Z,100433.75
2022-08-14T07:56:48.112Z,100429.00
2022-08-14T07:59:18.687Z,100427.94
2022-08-14T08:01:48.333Z,100432.16
2022-08-14T08:04:25.310Z,100434.88
2022-08-14T08:06:55.225Z,100439.72
2022-08-14T08:09:29.852Z,100440.19
2022-08-14T08:12:05.045Z,100439.56
2022-08-14T08:14:56.541Z,100444.63
2022-08-14T08:17:26.326Z,100441.06
2022-08-14T08:20:02.594Z,100439.72
2022-08-14T08:22:32.564Z,100443.88
2022-08-14T08:25:00.698Z,100442.47
2022-08-14T08:27:34.206Z,100432.53
2022-08-14T08:30:10.305Z,100436.13
2022-08-14T08:32:41.265Z,100439.03
2022-08-14T08:35:25.718Z,100450.47
2022-08-14T08:39:17.976Z,100438.50
2022-08-14T08:41:09.677Z,100438.47
2022-08-14T08:43:46.286Z,100429.66
2022-08-14T08:46:23.589Z,100429.84
2022-08-14T08:51:33.244Z,100434.09
2022-08-14T08:54:06.456Z,100439.38
2022-08-14T08:56:52.790Z,100439.78
2022-08-14T08:59:31.664Z,100438.13
2022-08-14T09:02:10.123Z,100428.28
2022-08-14T09:04:45.892Z,100429.03
2022-08-14T09:07:27.809Z,100428.34
2022-08-14T09:09:58.995Z,100426.00
2022-08-14T09:12:32.469Z,100417.31
2022-08-14T09:15:02.118Z,100415.09
2022-08-14T09:17:30.024Z,100406.31
2022-08-14T09:20:01.938Z,100415.97
2022-08-14T09:22:34.881Z,100410.88
2022-08-14T09:25:07.539Z,100406.47
2022-08-14T09:27:38.180Z,100408.41
2022-08-14T09:30:31.504Z,100400.75
2022-08-14T09:33:11.645Z,100395.06
2022-08-14T09:35:42.793Z,100394.63
2022-08-14T09:38:43.557Z,100398.16
2022-08-14T09:42:17.704Z,100392.97
2022-08-14T09:44:33.721Z,100393.75
2022-08-14T09:47:02.246Z,100395.56
2022-08-14T09:49:32.202Z,100394.31
2022-08-14T09:52:33.218Z,100396.06
2022-08-14T09:54:55.890Z,100383.31
2022-08-14T09:57:29.054Z,100386.72
2022-08-14T09:59:57.391Z,100377.22
2022-08-14T10:02:31.388Z,100370.16
2022-08-14T10:05:10.271Z,100368.94
2022-08-14T10:07:53.482Z,100359.91
2022-08-14T10:10:43.304Z,100367.75
2022-08-14T10:13:26.156Z,100369.25
2022-08-14T10:16:00.050Z,100353.53
2022-08-14T10:18:28.459Z,100356.22
2022-08-14T10:20:58.975Z,100362.94
2022-08-14T10:23:39.236Z,100362.41
2022-08-14T10:26:08.585Z,100355.91
2022-08-14T10:29:17.671Z,100358.94
2022-08-14T10:31:43.311Z,100359.97
2022-08-14T10:34:18.579Z,100358.63
2022-08-14T10:37:02.662Z,100353.41
2022-08-14T10:39:30.803Z,100348.75
2022-08-14T10:42:16.422Z,100356.53
2022-08-14T10:44:49.158Z,100343.88
2022-08-14T10:47:40.288Z,100349.84
2022-08-14T10:50:12.163Z,100326.44
2022-08-14T10:52:45.053Z,100328.09
2022-08-14T10:55:15.656Z,100331.00
2022-08-14T10:57:54.126Z,100328.47
2022-08-14T11:00:29.843Z,100322.97
2022-08-14T11:03:09.651Z,100325.38
2022-08-14T11:05:45.169Z,100312.00
2022-08-14T11:08:16.026Z,100314.00
2022-08-14T11:10:46.257Z,100305.16
2022-08-14T11:13:24.490Z,100306.31
2022-08-14T11:15:56.220Z,100311.13
2022-08-14T11:18:32.335Z,100307.72
2022-08-14T11:21:09.850Z,100309.38
2022-08-14T11:23:43.826Z,100305.66
2022-08-14T11:26:19.123Z,100300.78
2022-08-14T11:28:49.667Z,100306.81
2022-08-14T11:31:21.954Z,100306.31
2022-08-14T11:33:56.874Z,100305.03
2022-08-14T11:36:57.126Z,100303.56
2022-08-14T11:39:34.774Z,100317.94
2022-08-14T11:42:55.419Z,100307.88
2022-08-14T11:45:00.240Z,100301.53
2022-08-14T11:47:35.576Z,100296.03
2022-08-14T11:50:33.623Z,100297.78
2022-08-14T11:53:04.789Z,100290.22
2022-08-14T11:55:39.052Z,100287.09
2022-08-14T11:58:11.369Z,100279.13
2022-08-14T12:01:01.859Z,100275.97
2022-08-14T12:03:51.385Z,100278.53
2022-08-14T12:06:28.823Z,100274.72
2022-08-14T12:09:03.772Z,100275.13
2022-08-14T12:11:43.513Z,100268.41
2022-08-14T12:14:13.412Z,100261.31
2022-08-14T12:17:12.748Z,100269.25
2022-08-14T12:19:51.211Z,100261.19
2022-08-14T12:22:40.164Z,100253.16
2022-08-14T12:25:14.071Z,100261.69
2022-08-14T12:27:53.588Z,100262.53
2022-08-14T12:30:43.416Z,100261.22
2022-08-14T12:33:30.744Z,100260.53
2022-08-14T12:36:05.840Z,100261.31
2022-08-14T12:38:45.773Z,100260.16
2022-08-14T12:41:20.277Z,100259.84
2022-08-14T12:43:56.450Z,100256.19
2022-08-14T12:46:28.589Z,100247.03
2022-08-14T12:49:06.877Z,100251.47
2022-08-14T12:51:35.733Z,100237.13
2022-08-14T12:54:26.949Z,100241.09
2022-08-14T12:57:14.672Z,100229.69
2022-08-14T12:59:47.280Z,100226.47
2022-08-14T13:02:26.227Z,100218.81
2022-08-14T13:04:56.797Z,100222.03
2022-08-14T13:07:32.657Z,100213.13
2022-08-14T13:10:46.282Z,100207.25
2022-08-14T13:13:12.448Z,100209.34
2022-08-14T13:15:40.815Z,100198.06
2022-08-14T13:18:11.352Z,100199.34
2022-08-14T13:20:49.534Z,100181.88
2022-08-14T13:23:28.609Z,100173.78
2022-08-14T13:26:00.564Z,100176.84
2022-08-14T13:28:33.844Z,100164.38
2022-08-14T13:31:10.915Z,100168.66
2022-08-14T13:33:40.779Z,100154.66
2022-08-14T13:36:11.015Z,100150.75
2022-08-14T13:38:53.960Z,100145.28
2022-08-14T13:41:28.051Z,100151.06
2022-08-14T13:44:03.370Z,100147.16
2022-08-14T13:46:31.007Z,100145.22
2022-08-14T13:48:59.735Z,100139.47
2022-08-14T13:51:32.103Z,100133.84
2022-08-14T13:54:10.320Z,100139.81
2022-08-14T13:56:40.501Z,100130.41
2022-08-14T13:59:09.211Z,100130.19
2022-08-14T14:01:43.351Z,100130.03
2022-08-14T14:04:19.580Z,100119.31
2022-08-14T14:06:51.243Z,100120.38
2022-08-14T14:09:25.724Z,100118.03
2022-08-14T14:11:55.021Z,100112.91
2022-08-14T14:14:29.789Z,100098.34
2022-08-14T14:17:13.872Z,100099.25
2022-08-14T14:19:47.765Z,100105.09
2022-08-14T14:22:44.959Z,100096.47
2022-08-14T14:25:04.100Z,100078.50
2022-08-14T14:27:41.553Z,100079.00
2022-08-14T14:30:21.639Z,100080.13
2022-08-14T14:33:04.291Z,100069.72
2022-08-14T14:35:35.334Z,100065.38
2022-08-14T14:38:07.285Z,100067.09
2022-08-14T14:40:53.416Z,100062.06
2022-08-14T14:43:26.381Z,100057.56
2022-08-14T14:45:55.689Z,100061.34
2022-08-14T14:48:28.240Z,100054.13
2022-08-14T14:50:59.459Z,100057.03
2022-08-14T14:53:38.594Z,100049.72
2022-08-14T14:56:50.606Z,100040.72
2022-08-14T14:58:58.430Z,100039.78
2022-08-14T15:01:26.344Z,100050.34
2022-08-14T15:03:56.344Z,100044.19
2022-08-14T15:06:29.027Z,100044.09
2022-08-14T15:09:00.079Z,100040.81
2022-08-14T15:11:30.445Z,100042.75
2022-08-14T15:14:00.370Z,100035.28
2022-08-14T15:16:28.983Z,100035.66
2022-08-14T15:18:56.973Z,100032.94
2022-08-14T15:21:25.160Z,100027.09
2022-08-14T15:23:55.055Z,100031.06
2022-08-14T15:26:32.162Z,100020.16
2022-08-14T15:29:05.073Z,100016.28
2022-08-14T15:31:36.657Z,100018.81
2022-08-14T15:34:43.643Z,100020.56
2022-08-14T15:36:59.705Z,100021.72
2022-08-14T15:39:29.379Z,100022.19
2022-08-14T15:42:02.662Z,100013.34
2022-08-14T15:44:34.174Z,100009.81
2022-08-14T15:47:09.300Z,100004.03
2022-08-14T15:49:39.821Z,100007.66
2022-08-14T15:52:08.141Z,100000.31
2022-08-14T15:54:38.520Z,100003.28
2022-08-14T15:57:09.073Z,100002.53
2022-08-14T15:59:57.418Z,99996.34
2022-08-14T16:02:27.828Z,99993.50
2022-08-14T16:04:56.467Z,99999.13
2022-08-14T16:07:27.590Z,99996.31
2022-08-14T16:10:27.639Z,100004.59
2022-08-14T16:12:50.036Z,99998.13
2022-08-14T16:15:18.956Z,99996.53
2022-08-14T16:17:47.652Z,99994.28
2022-08-14T16:20:42.236Z,99995.50
2022-08-14T16:23:11.616Z,99996.91
2022-08-14T16:25:56.029Z,99987.72
2022-08-14T16:28:27.414Z,99982.59
2022-08-14T16:30:56.262Z,99978.66
2022-08-14T16:33:56.334Z,99984.38
2022-08-14T16:36:30.390Z,99983.97
2022-08-14T16:39:02.059Z,99981.94
2022-08-14T16:41:30.377Z,99977.09
2022-08-14T16:44:04.708Z,99978.75
2022-08-14T16:46:42.887Z,99972.50
2022-08-14T16:49:16.120Z,99970.97
2022-08-14T16:51:46.468Z,99978.28
2022-08-14T16:54:35.151Z,99969.28
2022-08-14T16:57:16.223Z,99958.19
2022-08-14T16:59:52.679Z,99958.53
2022-08-14T17:02:42.642Z,99950.38
2022-08-14T17:05:17.718Z,99956.72
2022-08-14T17:08:28.626Z,99955.41
2022-08-14T17:11:14.606Z,99961.03
2022-08-14T17:14:01.767Z,99956.97
2022-08-14T17:16:56.079Z,99949.16
2022-08-14T17:19:24.095Z,99955.91
2022-08-14T17:21:52.655Z,99952.00
2022-08-14T17:24:56.537Z,99954.28
2022-08-14T17:27:10.974Z,99950.69
2022-08-14T17:29:56.309Z,99957.22
2022-08-14T17:32:55.825Z,99958.75
2022-08-14T17:35:26.680Z,99965.63
2022-08-14T17:38:38.206Z,99956.03
2022-08-14T17:41:23.396Z,99960.06
2022-08-14T17:43:54.966Z,99965.34
2022-08-14T17:46:50.196Z,99959.78
2022-08-14T17:49:32.142Z,99963.94
2022-08-14T17:52:16.685Z,99968.84
2022-08-14T17:56:02.115Z,99962.78
2022-08-14T17:58:20.613Z,99973.03
2022-08-14T18:00:51.488Z,99979.53
2022-08-14T18:03:50.338Z,99976.59
2022-08-14T18:06:39.399Z,99972.22
2022-08-14T18:08:58.991Z,99983.81
2022-08-14T18:11:45.804Z,99976.34
2022-08-14T18:14:31.541Z,99987.22
2022-08-14T18:17:02.195Z,99989.63
2022-08-14T18:19:35.195Z,99994.56
2022-08-14T18:22:23.948Z,99993.56
2022-08-14T18:24:53.366Z,99994.56
2022-08-14T18:27:23.793Z,100001.59
2022-08-14T18:29:56.704Z,100012.47
2022-08-14T18:32:31.391Z,100008.72
2022-08-14T18:35:11.273Z,100012.38
2022-08-14T18:37:42.265Z,100010.94
2022-08-14T18:40:34.348Z,100012.00
2022-08-14T18:43:03.694Z,100007.47
2022-08-14T18:45:34.427Z,100018.31
2022-08-14T18:48:33.394Z,100017.34
2022-08-14T18:51:14.551Z,100012.81
2022-08-14T18:53:51.233Z,100011.53
2022-08-14T18:56:58.998Z,100017.19
2022-08-14T18:59:40.169Z,100010.75
2022-08-14T19:02:30.528Z,100008.47
2022-08-14T19:05:02.377Z,100019.91
2022-08-14T19:07:33.428Z,100022.22
2022-08-14T19:10:05.962Z,100036.88
2022-08-14T19:12:56.701Z,100037.47
2022-08-14T19:15:34.583Z,100048.25
2022-08-14T19:18:25.838Z,100047.03
2022-08-14T19:21:03.339Z,100059.19
2022-08-14T19:23:44.037Z,100054.34
2022-08-14T19:26:35.522Z,100060.88
2022-08-14T19:29:39.720Z,100070.16
2022-08-14T19:32:40.755Z,100069.34
2022-08-14T19:35:18.347Z,100068.09
2022-08-14T19:37:54.027Z,100067.34
2022-08-14T19:40:29.340Z,100069.19
2022-08-14T19:42:59.297Z,100064.38
2022-08-14T19:45:27.733Z,100067.13
2022-08-14T19:47:57.866Z,100065.25
2022-08-14T19:50:40.702Z,100064.69
2022-08-14T19:53:16.586Z,100072.66
2022-08-14T19:56:02.025Z,100074.31
2022-08-14T19:58:55.361Z,100069.53
2022-08-14T20:01:37.473Z,100058.31
2022-08-14T20:04:45.237Z,100056.66
2022-08-14T20:07:01.584Z,100061.88
2022-08-14T20:11:08.563Z,100070.09
2022-08-14T20:12:36.537Z,100069.34
2022-08-14T20:15:20.919Z,100072.66
2022-08-14T20:17:52.515Z,100070.59
2022-08-14T20:20:32.093Z,100069.75
2022-08-14T20:23:11.378Z,100065.03
2022-08-14T20:25:45.255Z,100070.09
2022-08-14T20:28:35.709Z,100074.47
2022-08-14T20:31:18.257Z,100084.94
2022-08-14T20:34:24.723Z,100085.53
2022-08-14T20:37:10.449Z,100078.50
2022-08-14T20:39:54.308Z,100072.16
2022-08-14T20:42:49.563Z,100078.69
2022-08-14T20:45:23.975Z,100080.94
2022-08-14T20:48:08.971Z,100078.81
2022-08-14T20:50:44.946Z,100080.88
2022-08-14T20:53:32.437Z,100073.78
2022-08-14T20:56:04.595Z,100071.34
2022-08-14T20:58:49.640Z,100071.34
2022-08-14T21:01:20.870Z,100074.75
2022-08-14T21:03:58.300Z,100087.78
2022-08-14T21:07:23.360Z,100090.38
2022-08-14T21:10:03.039Z,100097.13
2022-08-14T21:12:34.767Z,100104.34
2022-08-14T21:14:58.890Z,100102.19
2022-08-14T21:17:29.750Z,100092.09
2022-08-14T21:19:57.531Z,100092.25
2022-08-14T21:22:26.916Z,100100.31
2022-08-14T21:25:01.703Z,100098.25
2022-08-14T21:27:37.194Z,100094.66
2022-08-14T21:30:21.186Z,100099.63
2022-08-14T21:33:09.064Z,100102.38
2022-08-14T21:35:45.666Z,100102.41
2022-08-14T21:38:18.321Z,100086.19
2022-08-14T21:40:50.481Z,100078.50
2022-08-14T21:43:24.905Z,100083.56
2022-08-14T21:45:58.809Z,100086.50
2022-08-14T21:48:34.066Z,100083.81
2022-08-14T21:51:55.077Z,100079.88
2022-08-14T21:54:00.059Z,100084.28
2022-08-14T21:56:38.926Z,100092.84
2022-08-14T21:59:11.670Z,100090.75
2022-08-14T22:02:01.975Z,100089.41
2022-08-14T22:04:40.655Z,100083.06
2022-08-14T22:07:17.152Z,100092.91
2022-08-14T22:09:54.769Z,100103.09
2022-08-14T22:12:58.463Z,100100.34
2022-08-14T22:15:16.422Z,100096.34
2022-08-14T22:17:45.165Z,100101.19
2022-08-14T22:20:20.586Z,100094.00
2022-08-14T22:22:48.599Z,100094.66
2022-08-14T22:25:33.562Z,100094.19
2022-08-14T22:28:09.788Z,100090.16
2022-08-14T22:30:38.988Z,100095.66
2022-08-14T22:33:13.362Z,100092.97
2022-08-14T22:35:41.788Z,100105.16
2022-08-14T22:38:37.589Z,100105.75
2022-08-14T22:41:26.949Z,100109.06
2022-08-14T22:43:50.163Z,100110.59
2022-08-14T22:46:20.114Z,100103.81
2022-08-14T22:48:49.289Z,100101.88
2022-08-14T22:51:20.407Z,100106.34
2022-08-14T22:53:52.287Z,100095.81
2022-08-14T22:56:29.508Z,100097.84
2022-08-14T22:59:09.584Z,100090.28
2022-08-14T23:01:57.172Z,100085.13
2022-08-14T23:04:35.308Z,100091.84
2022-08-14T23:07:22.560Z,100081.44
2022-08-14T23:09:56.352Z,100088.13
2022-08-14T23:12:45.667Z,100079.09
2022-08-14T23:15:16.102Z,100075.41
2022-08-14T23:17:46.701Z,100072.44
2022-08-14T23:20:19.760Z,100076.25
2022-08-14T23:22:48.863Z,100068.97
2022-08-14T23:25:20.133Z,100070.56
2022-08-14T23:28:34.940Z,100058.13
2022-08-14T23:30:55.941Z,100052.47
2022-08-14T23:33:23.418Z,100058.66
2022-08-14T23:35:59.159Z,100053.34
2022-08-14T23:38:30.830Z,100053.34
2022-08-14T23:41:00.842Z,100049.84
2022-08-14T23:43:31.063Z,100053.41
2022-08-14T23:45:59.425Z,100053.41
2022-08-14T23:48:28.560Z,100057.59
2022-08-14T23:50:56.805Z,100054.56
2022-08-14T23:53:47.214Z,100055.91
2022-08-14T23:56:32.074Z,100053.69
2022-08-14T23:59:01.831Z,100046.94
